VJT582 EDNY-EGLF
Flight info
| Callsign | VJT582 |
|---|---|
| Flight time | 1h 31m |
| Altitude | 38000 |
| Route | ALAGO1E ALAGO Z1 ETAGO DCT LIRSU DCT DENUT L610 LAM L179 ICTAM Q63 CPT |
| Aircraft | CL60/M-SBDE1E2E3FGHIJ1J4J5J7M3RWXYZ/LB1V1D1 |
Departure
| Time | 2026-04-26 17:00 |
|---|---|
| Airport | Bodensee Airport Friedrichshafen (EDNY) |
Arrival
| Time | 2026-04-26 18:32 |
|---|---|
| Airport | Farnborough Airport (EGLF) |
| Time | Latitude | Longitude | Altitude | Speed | Heading |
|---|---|---|---|---|---|
| 2026-04-26 16:38 | 47.66931 | 9.51269 | 1377 ft | 0 kts | 137° |
| 2026-04-26 16:55 | 47.66929 | 9.51272 | 1378 ft | 2 kts | 137° |
| 2026-04-26 16:55 | 47.66900 | 9.51264 | 1378 ft | 8 kts | 249° |
| 2026-04-26 16:55 | 47.66937 | 9.51179 | 1378 ft | 13 kts | 323° |
| 2026-04-26 16:55 | 47.66903 | 9.51036 | 1377 ft | 18 kts | 242° |
| 2026-04-26 16:56 | 47.66725 | 9.50711 | 1377 ft | 20 kts | 210° |
| 2026-04-26 16:56 | 47.66626 | 9.50533 | 1377 ft | 25 kts | 240° |
| 2026-04-26 16:56 | 47.66529 | 9.50288 | 1377 ft | 29 kts | 241° |
| 2026-04-26 16:57 | 47.66497 | 9.50207 | 1377 ft | 0 kts | 239° |
| 2026-04-26 16:57 | 47.66484 | 9.50170 | 1377 ft | 7 kts | 246° |
| 2026-04-26 16:57 | 47.66508 | 9.49965 | 1377 ft | 0 kts | 300° |
| 2026-04-26 16:58 | 47.66519 | 9.49937 | 1377 ft | 6 kts | 300° |
| 2026-04-26 16:58 | 47.66531 | 9.49906 | 1377 ft | 0 kts | 302° |
| 2026-04-26 16:58 | 47.66537 | 9.49892 | 1377 ft | 2 kts | 302° |
| 2026-04-26 16:59 | 47.66559 | 9.49848 | 1377 ft | 8 kts | 313° |
| 2026-04-26 16:59 | 47.66622 | 9.49832 | 1377 ft | 1 kts | 60° |
| 2026-04-26 17:00 | 47.66968 | 9.50737 | 1378 ft | 138 kts | 60° |
| 2026-04-26 17:00 | 47.68136 | 9.53917 | 2675 ft | 192 kts | 62° |
| 2026-04-26 17:00 | 47.68749 | 9.55646 | 3450 ft | 186 kts | 61° |
| 2026-04-26 17:01 | 47.69382 | 9.57332 | 3842 ft | 194 kts | 59° |
| 2026-04-26 17:01 | 47.70111 | 9.59178 | 3985 ft | 211 kts | 56° |
| 2026-04-26 17:01 | 47.71190 | 9.60563 | 4015 ft | 208 kts | 19° |
| 2026-04-26 17:01 | 47.72609 | 9.60472 | 4026 ft | 211 kts | 336° |
| 2026-04-26 17:02 | 47.73695 | 9.58965 | 4043 ft | 216 kts | 309° |
| 2026-04-26 17:02 | 47.74580 | 9.57143 | 4041 ft | 219 kts | 309° |
| 2026-04-26 17:02 | 47.75468 | 9.55315 | 4166 ft | 214 kts | 309° |
| 2026-04-26 17:02 | 47.76384 | 9.53448 | 4805 ft | 237 kts | 309° |
| 2026-04-26 17:03 | 47.77321 | 9.51583 | 6421 ft | 227 kts | 308° |
| 2026-04-26 17:03 | 47.78223 | 9.49798 | 7841 ft | 223 kts | 308° |
| 2026-04-26 17:03 | 47.79196 | 9.47913 | 8766 ft | 246 kts | 312° |
| 2026-04-26 17:03 | 47.80672 | 9.46418 | 9545 ft | 273 kts | 344° |
| 2026-04-26 17:04 | 47.82588 | 9.46173 | 10706 ft | 285 kts | 360° |
| 2026-04-26 17:04 | 47.84560 | 9.46190 | 11936 ft | 293 kts | 359° |
| 2026-04-26 17:04 | 47.86584 | 9.46193 | 13214 ft | 298 kts | 359° |
| 2026-04-26 17:04 | 47.88652 | 9.46194 | 14440 ft | 303 kts | 359° |
| 2026-04-26 17:05 | 47.90770 | 9.46194 | 15637 ft | 307 kts | 358° |
| 2026-04-26 17:05 | 47.92888 | 9.46194 | 16713 ft | 313 kts | 358° |
| 2026-04-26 17:05 | 47.95081 | 9.46192 | 17772 ft | 317 kts | 358° |
| 2026-04-26 17:05 | 47.97270 | 9.46191 | 18795 ft | 321 kts | 358° |
| 2026-04-26 17:06 | 47.99522 | 9.46188 | 19779 ft | 326 kts | 358° |
| 2026-04-26 17:06 | 48.01776 | 9.46187 | 20700 ft | 331 kts | 358° |
| 2026-04-26 17:06 | 48.04100 | 9.46184 | 21639 ft | 334 kts | 358° |
| 2026-04-26 17:06 | 48.06407 | 9.46180 | 22508 ft | 338 kts | 357° |
| 2026-04-26 17:07 | 48.08780 | 9.46176 | 23355 ft | 342 kts | 357° |
| 2026-04-26 17:07 | 48.11180 | 9.46171 | 24189 ft | 347 kts | 357° |
| 2026-04-26 17:07 | 48.13626 | 9.46166 | 25012 ft | 352 kts | 357° |
| 2026-04-26 17:07 | 48.16101 | 9.46162 | 25806 ft | 356 kts | 357° |
| 2026-04-26 17:08 | 48.18578 | 9.46162 | 26567 ft | 360 kts | 357° |
| 2026-04-26 17:08 | 48.21128 | 9.46164 | 27286 ft | 364 kts | 358° |
| 2026-04-26 17:08 | 48.23660 | 9.46167 | 27953 ft | 368 kts | 358° |
| 2026-04-26 17:08 | 48.26234 | 9.46169 | 28438 ft | 377 kts | 358° |
| 2026-04-26 17:09 | 48.28919 | 9.46167 | 28433 ft | 397 kts | 358° |
| 2026-04-26 17:09 | 48.30807 | 9.46167 | 28443 ft | 409 kts | 358° |
| 2026-04-26 17:09 | 48.34685 | 9.46168 | 28630 ft | 427 kts | 358° |
| 2026-04-26 17:09 | 48.37671 | 9.46171 | 29014 ft | 434 kts | 358° |
| 2026-04-26 17:10 | 48.40717 | 9.46176 | 29522 ft | 436 kts | 358° |
| 2026-04-26 17:10 | 48.43737 | 9.46181 | 30002 ft | 439 kts | 358° |
| 2026-04-26 17:10 | 48.46825 | 9.46185 | 30441 ft | 442 kts | 358° |
| 2026-04-26 17:10 | 48.49917 | 9.46188 | 30900 ft | 444 kts | 358° |
| 2026-04-26 17:11 | 48.52944 | 9.46190 | 31320 ft | 446 kts | 358° |
| 2026-04-26 17:11 | 48.56051 | 9.46163 | 31695 ft | 448 kts | 358° |
| 2026-04-26 17:11 | 48.59152 | 9.46129 | 32026 ft | 450 kts | 358° |
| 2026-04-26 17:11 | 48.62305 | 9.45978 | 32315 ft | 451 kts | 354° |
| 2026-04-26 17:12 | 48.68482 | 9.44044 | 32843 ft | 452 kts | 340° |
| 2026-04-26 17:12 | 48.71366 | 9.42248 | 33110 ft | 451 kts | 333° |
| 2026-04-26 17:13 | 48.76656 | 9.37033 | 33558 ft | 452 kts | 319° |
| 2026-04-26 17:13 | 48.78909 | 9.33749 | 33748 ft | 453 kts | 312° |
| 2026-04-26 17:13 | 48.82863 | 9.26233 | 34227 ft | 454 kts | 307° |
| 2026-04-26 17:14 | 48.84804 | 9.22418 | 34532 ft | 453 kts | 307° |
| 2026-04-26 17:14 | 48.88636 | 9.14876 | 35135 ft | 449 kts | 308° |
| 2026-04-26 17:14 | 48.90533 | 9.11134 | 35413 ft | 448 kts | 308° |
| 2026-04-26 17:15 | 48.94316 | 9.03655 | 35951 ft | 445 kts | 308° |
| 2026-04-26 17:15 | 48.96193 | 8.99936 | 36229 ft | 444 kts | 308° |
| 2026-04-26 17:15 | 48.98085 | 8.96183 | 36509 ft | 442 kts | 308° |
| 2026-04-26 17:16 | 48.99945 | 8.92489 | 36774 ft | 442 kts | 308° |
| 2026-04-26 17:16 | 49.01841 | 8.88720 | 36998 ft | 442 kts | 308° |
| 2026-04-26 17:16 | 49.03699 | 8.85018 | 37269 ft | 442 kts | 308° |
| 2026-04-26 17:16 | 49.05556 | 8.81313 | 37551 ft | 441 kts | 308° |
| 2026-04-26 17:17 | 49.07427 | 8.77577 | 37826 ft | 441 kts | 308° |
| 2026-04-26 17:17 | 49.09276 | 8.73878 | 38073 ft | 440 kts | 308° |
| 2026-04-26 17:17 | 49.11131 | 8.70163 | 38221 ft | 442 kts | 308° |
| 2026-04-26 17:18 | 49.14917 | 8.62564 | 38212 ft | 444 kts | 308° |
| 2026-04-26 17:18 | 49.18641 | 8.55069 | 38208 ft | 442 kts | 308° |
| 2026-04-26 17:19 | 49.24211 | 8.43817 | 38203 ft | 441 kts | 308° |
| 2026-04-26 17:19 | 49.27887 | 8.36367 | 38212 ft | 440 kts | 308° |
| 2026-04-26 17:20 | 49.30953 | 8.30136 | 38216 ft | 439 kts | 307° |
| 2026-04-26 17:20 | 49.35255 | 8.21369 | 38220 ft | 439 kts | 307° |
| 2026-04-26 17:21 | 49.38905 | 8.13909 | 38213 ft | 439 kts | 307° |
| 2026-04-26 17:21 | 49.42570 | 8.06395 | 38215 ft | 439 kts | 307° |
| 2026-04-26 17:22 | 49.46214 | 7.98906 | 38219 ft | 439 kts | 308° |
| 2026-04-26 17:22 | 49.49881 | 7.91347 | 38223 ft | 439 kts | 308° |
| 2026-04-26 17:23 | 49.53516 | 7.83830 | 38216 ft | 439 kts | 308° |
| 2026-04-26 17:23 | 49.57173 | 7.76248 | 38215 ft | 438 kts | 308° |
| 2026-04-26 17:24 | 49.60816 | 7.68674 | 38210 ft | 438 kts | 308° |
| 2026-04-26 17:24 | 49.64417 | 7.61164 | 38223 ft | 437 kts | 308° |
| 2026-04-26 17:25 | 49.68035 | 7.53598 | 38252 ft | 436 kts | 308° |
| 2026-04-26 17:25 | 49.71624 | 7.46071 | 38244 ft | 436 kts | 308° |
| 2026-04-26 17:26 | 49.75216 | 7.38518 | 38240 ft | 436 kts | 308° |
| 2026-04-26 17:26 | 49.78800 | 7.30959 | 38242 ft | 436 kts | 307° |
| 2026-04-26 17:27 | 49.82369 | 7.23409 | 38246 ft | 435 kts | 307° |
| 2026-04-26 17:27 | 49.85946 | 7.15823 | 38242 ft | 435 kts | 307° |
| 2026-04-26 17:28 | 49.89493 | 7.08277 | 38246 ft | 435 kts | 307° |
| 2026-04-26 17:28 | 49.93062 | 7.00663 | 38246 ft | 435 kts | 307° |
| 2026-04-26 17:29 | 49.96016 | 6.94344 | 38238 ft | 434 kts | 307° |
| 2026-04-26 17:29 | 50.00133 | 6.85512 | 38239 ft | 433 kts | 307° |
| 2026-04-26 17:30 | 50.03672 | 6.77897 | 38241 ft | 433 kts | 307° |
| 2026-04-26 17:30 | 50.07191 | 6.70303 | 38242 ft | 433 kts | 307° |
| 2026-04-26 17:31 | 50.10695 | 6.62720 | 38227 ft | 433 kts | 307° |
| 2026-04-26 17:31 | 50.14225 | 6.55056 | 38231 ft | 434 kts | 307° |
| 2026-04-26 17:32 | 50.17767 | 6.47345 | 38233 ft | 434 kts | 307° |
| 2026-04-26 17:32 | 50.21064 | 6.39409 | 38228 ft | 436 kts | 303° |
| 2026-04-26 17:33 | 50.24290 | 6.31210 | 38226 ft | 444 kts | 303° |
| 2026-04-26 17:34 | 50.29173 | 6.18762 | 38222 ft | 450 kts | 303° |
| 2026-04-26 17:34 | 50.32434 | 6.10419 | 38236 ft | 448 kts | 303° |
| 2026-04-26 17:35 | 50.35657 | 6.02148 | 38238 ft | 446 kts | 303° |
| 2026-04-26 17:35 | 50.38887 | 5.93837 | 38234 ft | 445 kts | 303° |
| 2026-04-26 17:36 | 50.42099 | 5.85548 | 38236 ft | 445 kts | 303° |
| 2026-04-26 17:36 | 50.45310 | 5.77233 | 38230 ft | 445 kts | 303° |
| 2026-04-26 17:37 | 50.48499 | 5.68952 | 38245 ft | 444 kts | 303° |
| 2026-04-26 17:37 | 50.51672 | 5.60685 | 38244 ft | 445 kts | 303° |
| 2026-04-26 17:38 | 50.56451 | 5.48183 | 38254 ft | 444 kts | 303° |
| 2026-04-26 17:38 | 50.59620 | 5.39863 | 38248 ft | 445 kts | 302° |
| 2026-04-26 17:39 | 50.62809 | 5.31463 | 38255 ft | 445 kts | 302° |
| 2026-04-26 17:39 | 50.65966 | 5.23116 | 38255 ft | 445 kts | 302° |
| 2026-04-26 17:40 | 50.68603 | 5.16125 | 38261 ft | 446 kts | 302° |
| 2026-04-26 17:40 | 50.72288 | 5.06325 | 38257 ft | 445 kts | 302° |
| 2026-04-26 17:41 | 50.75449 | 4.97890 | 38253 ft | 444 kts | 302° |
| 2026-04-26 17:41 | 50.78581 | 4.89504 | 38254 ft | 444 kts | 302° |
| 2026-04-26 17:42 | 50.81731 | 4.81039 | 38256 ft | 445 kts | 302° |
| 2026-04-26 17:42 | 50.84849 | 4.72636 | 38253 ft | 446 kts | 301° |
| 2026-04-26 17:43 | 50.87993 | 4.64136 | 38260 ft | 446 kts | 302° |
| 2026-04-26 17:43 | 50.91141 | 4.55593 | 38264 ft | 446 kts | 301° |
| 2026-04-26 17:44 | 50.94255 | 4.47116 | 38277 ft | 445 kts | 301° |
| 2026-04-26 17:44 | 50.97365 | 4.38623 | 38263 ft | 445 kts | 301° |
| 2026-04-26 17:45 | 51.00476 | 4.30100 | 38255 ft | 445 kts | 300° |
| 2026-04-26 17:45 | 51.03595 | 4.21520 | 38256 ft | 445 kts | 301° |
| 2026-04-26 17:46 | 51.06676 | 4.13019 | 38265 ft | 445 kts | 301° |
| 2026-04-26 17:46 | 51.09762 | 4.04478 | 38264 ft | 446 kts | 301° |
| 2026-04-26 17:47 | 51.12349 | 3.97295 | 38272 ft | 447 kts | 300° |
| 2026-04-26 17:47 | 51.15932 | 3.87311 | 38272 ft | 447 kts | 300° |
| 2026-04-26 17:48 | 51.19011 | 3.78701 | 38269 ft | 446 kts | 300° |
| 2026-04-26 17:48 | 51.22113 | 3.70141 | 38171 ft | 447 kts | 304° |
| 2026-04-26 17:49 | 51.23545 | 3.65789 | 38118 ft | 444 kts | 293° |
| 2026-04-26 17:49 | 51.24462 | 3.61138 | 38220 ft | 445 kts | 285° |
| 2026-04-26 17:49 | 51.25709 | 3.51398 | 38248 ft | 448 kts | 283° |
| 2026-04-26 17:50 | 51.26954 | 3.41644 | 38265 ft | 449 kts | 283° |
| 2026-04-26 17:50 | 51.28190 | 3.31843 | 38277 ft | 449 kts | 282° |
| 2026-04-26 17:51 | 51.29416 | 3.22086 | 38270 ft | 449 kts | 283° |
| 2026-04-26 17:51 | 51.30642 | 3.12331 | 38345 ft | 448 kts | 283° |
| 2026-04-26 17:52 | 51.31286 | 3.07538 | 38591 ft | 446 kts | 284° |
| 2026-04-26 17:52 | 51.31945 | 3.02616 | 38397 ft | 451 kts | 283° |
| 2026-04-26 17:52 | 51.33132 | 2.92885 | 38294 ft | 443 kts | 282° |
| 2026-04-26 17:53 | 51.34296 | 2.83351 | 38277 ft | 438 kts | 282° |
| 2026-04-26 17:54 | 51.36050 | 2.68974 | 38278 ft | 438 kts | 282° |
| 2026-04-26 17:54 | 51.37205 | 2.59486 | 38282 ft | 439 kts | 282° |
| 2026-04-26 17:55 | 51.38366 | 2.49919 | 38287 ft | 439 kts | 282° |
| 2026-04-26 17:55 | 51.39526 | 2.40302 | 38275 ft | 439 kts | 282° |
| 2026-04-26 17:56 | 51.40675 | 2.30712 | 38275 ft | 440 kts | 282° |
| 2026-04-26 17:57 | 51.43006 | 2.11482 | 38286 ft | 440 kts | 282° |
| 2026-04-26 17:57 | 51.44166 | 2.01881 | 38292 ft | 440 kts | 282° |
| 2026-04-26 17:58 | 51.45932 | 1.86929 | 38285 ft | 440 kts | 282° |
| 2026-04-26 17:59 | 51.47600 | 1.72515 | 38287 ft | 440 kts | 281° |
| 2026-04-26 17:59 | 51.48703 | 1.62885 | 38297 ft | 440 kts | 281° |
| 2026-04-26 18:00 | 51.49803 | 1.53216 | 38296 ft | 440 kts | 281° |
| 2026-04-26 18:00 | 51.50891 | 1.43582 | 38288 ft | 441 kts | 281° |
| 2026-04-26 18:01 | 51.51977 | 1.33882 | 38278 ft | 440 kts | 281° |
| 2026-04-26 18:01 | 51.53044 | 1.24292 | 37946 ft | 432 kts | 281° |
| 2026-04-26 18:02 | 51.53567 | 1.19566 | 36904 ft | 434 kts | 280° |
| 2026-04-26 18:02 | 51.53914 | 1.16424 | 36074 ft | 436 kts | 280° |
| 2026-04-26 18:02 | 51.54621 | 1.09989 | 34094 ft | 445 kts | 280° |
| 2026-04-26 18:02 | 51.55147 | 1.05178 | 32416 ft | 447 kts | 280° |
| 2026-04-26 18:03 | 51.55679 | 1.00303 | 31072 ft | 440 kts | 280° |
| 2026-04-26 18:03 | 51.56195 | 0.95539 | 29885 ft | 431 kts | 280° |
| 2026-04-26 18:03 | 51.56700 | 0.90865 | 28760 ft | 425 kts | 280° |
| 2026-04-26 18:03 | 51.57200 | 0.86225 | 27731 ft | 419 kts | 280° |
| 2026-04-26 18:04 | 51.57687 | 0.81675 | 26712 ft | 413 kts | 279° |
| 2026-04-26 18:04 | 51.58163 | 0.77213 | 25704 ft | 407 kts | 280° |
| 2026-04-26 18:04 | 51.58635 | 0.72784 | 24715 ft | 401 kts | 280° |
| 2026-04-26 18:05 | 51.59553 | 0.64102 | 22722 ft | 393 kts | 279° |
| 2026-04-26 18:05 | 51.60001 | 0.59849 | 21913 ft | 384 kts | 279° |
| 2026-04-26 18:05 | 51.60442 | 0.55641 | 21149 ft | 376 kts | 279° |
| 2026-04-26 18:05 | 51.60871 | 0.51523 | 20397 ft | 376 kts | 279° |
| 2026-04-26 18:06 | 51.61297 | 0.47437 | 19649 ft | 374 kts | 279° |
| 2026-04-26 18:06 | 51.61720 | 0.43348 | 18891 ft | 370 kts | 279° |
| 2026-04-26 18:06 | 51.62141 | 0.39275 | 18143 ft | 366 kts | 279° |
| 2026-04-26 18:06 | 51.62555 | 0.35254 | 17379 ft | 363 kts | 279° |
| 2026-04-26 18:07 | 51.62963 | 0.31280 | 16600 ft | 359 kts | 278° |
| 2026-04-26 18:07 | 51.63369 | 0.27311 | 15839 ft | 356 kts | 278° |
| 2026-04-26 18:07 | 51.63768 | 0.23386 | 15124 ft | 353 kts | 278° |
| 2026-04-26 18:07 | 51.64032 | 0.20790 | 14634 ft | 351 kts | 278° |
| 2026-04-26 18:08 | 51.64498 | 0.15584 | 13588 ft | 347 kts | 271° |
| 2026-04-26 18:08 | 51.64261 | 0.11741 | 12842 ft | 341 kts | 260° |
| 2026-04-26 18:08 | 51.63851 | 0.08004 | 12090 ft | 338 kts | 260° |
| 2026-04-26 18:08 | 51.63457 | 0.04344 | 11426 ft | 327 kts | 260° |
| 2026-04-26 18:09 | 51.63068 | 0.00748 | 11309 ft | 329 kts | 260° |
| 2026-04-26 18:09 | 51.62671 | -0.02918 | 11288 ft | 330 kts | 260° |
| 2026-04-26 18:09 | 51.62273 | -0.06584 | 11278 ft | 330 kts | 261° |
| 2026-04-26 18:09 | 51.61812 | -0.10151 | 11278 ft | 331 kts | 253° |
| 2026-04-26 18:10 | 51.60743 | -0.13422 | 11275 ft | 332 kts | 233° |
| 2026-04-26 18:10 | 51.59195 | -0.16194 | 11278 ft | 331 kts | 228° |
| 2026-04-26 18:10 | 51.57674 | -0.18821 | 11281 ft | 309 kts | 229° |
| 2026-04-26 18:10 | 51.56256 | -0.21277 | 11282 ft | 288 kts | 229° |
| 2026-04-26 18:11 | 51.55100 | -0.23781 | 11287 ft | 268 kts | 248° |
| 2026-04-26 18:11 | 51.54781 | -0.26608 | 11267 ft | 257 kts | 269° |
| 2026-04-26 18:11 | 51.54802 | -0.29476 | 11261 ft | 251 kts | 271° |
| 2026-04-26 18:11 | 51.54847 | -0.32266 | 11276 ft | 250 kts | 271° |
| 2026-04-26 18:12 | 51.54893 | -0.35040 | 11274 ft | 250 kts | 271° |
| 2026-04-26 18:12 | 51.54723 | -0.37826 | 11269 ft | 249 kts | 252° |
| 2026-04-26 18:12 | 51.54164 | -0.40448 | 11268 ft | 248 kts | 259° |
| 2026-04-26 18:12 | 51.53990 | -0.43230 | 11266 ft | 248 kts | 267° |
| 2026-04-26 18:13 | 51.53888 | -0.45975 | 11263 ft | 248 kts | 267° |
| 2026-04-26 18:13 | 51.53777 | -0.48763 | 11270 ft | 249 kts | 266° |
| 2026-04-26 18:13 | 51.53657 | -0.51548 | 11272 ft | 249 kts | 266° |
| 2026-04-26 18:13 | 51.53573 | -0.53384 | 11267 ft | 249 kts | 266° |
| 2026-04-26 18:14 | 51.53395 | -0.57083 | 11265 ft | 249 kts | 266° |
| 2026-04-26 18:14 | 51.53251 | -0.59876 | 11263 ft | 250 kts | 265° |
| 2026-04-26 18:14 | 51.53097 | -0.62645 | 11256 ft | 250 kts | 265° |
| 2026-04-26 18:14 | 51.52921 | -0.65504 | 11052 ft | 269 kts | 264° |
| 2026-04-26 18:15 | 51.52726 | -0.68564 | 10803 ft | 278 kts | 264° |
| 2026-04-26 18:15 | 51.52524 | -0.71691 | 10533 ft | 280 kts | 264° |
| 2026-04-26 18:15 | 51.52322 | -0.74808 | 10283 ft | 280 kts | 264° |
| 2026-04-26 18:15 | 51.52116 | -0.77960 | 10079 ft | 279 kts | 264° |
| 2026-04-26 18:16 | 51.51916 | -0.81023 | 9793 ft | 279 kts | 264° |
| 2026-04-26 18:16 | 51.51506 | -0.87245 | 9250 ft | 279 kts | 264° |
| 2026-04-26 18:16 | 51.51302 | -0.90343 | 9023 ft | 278 kts | 264° |
| 2026-04-26 18:17 | 51.51097 | -0.93417 | 8753 ft | 277 kts | 264° |
| 2026-04-26 18:17 | 51.50892 | -0.96501 | 8524 ft | 276 kts | 264° |
| 2026-04-26 18:17 | 51.50684 | -0.99596 | 8271 ft | 278 kts | 264° |
| 2026-04-26 18:17 | 51.50477 | -1.02683 | 8008 ft | 275 kts | 264° |
| 2026-04-26 18:18 | 51.50271 | -1.05733 | 7787 ft | 275 kts | 264° |
| 2026-04-26 18:18 | 51.50069 | -1.08724 | 7564 ft | 275 kts | 265° |
| 2026-04-26 18:18 | 51.49781 | -1.11785 | 7285 ft | 273 kts | 253° |
| 2026-04-26 18:18 | 51.48882 | -1.14508 | 7049 ft | 274 kts | 232° |
| 2026-04-26 18:19 | 51.47454 | -1.16522 | 6772 ft | 275 kts | 211° |
| 2026-04-26 18:19 | 51.45668 | -1.17571 | 6534 ft | 274 kts | 189° |
| 2026-04-26 18:19 | 51.43759 | -1.17481 | 6291 ft | 274 kts | 166° |
| 2026-04-26 18:19 | 51.41993 | -1.16357 | 6037 ft | 274 kts | 153° |
| 2026-04-26 18:20 | 51.40292 | -1.15006 | 5776 ft | 273 kts | 153° |
| 2026-04-26 18:20 | 51.38594 | -1.13671 | 5524 ft | 272 kts | 153° |
| 2026-04-26 18:20 | 51.36882 | -1.12327 | 5281 ft | 270 kts | 153° |
| 2026-04-26 18:20 | 51.35783 | -1.11455 | 5121 ft | 269 kts | 151° |
| 2026-04-26 18:21 | 51.33985 | -1.08791 | 5013 ft | 262 kts | 124° |
| 2026-04-26 18:21 | 51.33011 | -1.06496 | 5039 ft | 239 kts | 123° |
| 2026-04-26 18:21 | 51.32094 | -1.04356 | 5031 ft | 226 kts | 123° |
| 2026-04-26 18:21 | 51.31206 | -1.02285 | 5012 ft | 225 kts | 123° |
| 2026-04-26 18:22 | 51.30328 | -1.00235 | 5007 ft | 224 kts | 123° |
| 2026-04-26 18:22 | 51.29445 | -0.98179 | 5006 ft | 224 kts | 123° |
| 2026-04-26 18:22 | 51.28553 | -0.96102 | 5006 ft | 224 kts | 123° |
| 2026-04-26 18:22 | 51.27665 | -0.94036 | 5006 ft | 225 kts | 123° |
| 2026-04-26 18:23 | 51.26785 | -0.91991 | 5007 ft | 225 kts | 123° |
| 2026-04-26 18:23 | 51.25894 | -0.89924 | 5006 ft | 225 kts | 123° |
| 2026-04-26 18:23 | 51.25008 | -0.87869 | 5004 ft | 225 kts | 123° |
| 2026-04-26 18:23 | 51.24111 | -0.85790 | 5006 ft | 225 kts | 123° |
| 2026-04-26 18:24 | 51.23423 | -0.83545 | 4883 ft | 227 kts | 105° |
| 2026-04-26 18:24 | 51.23020 | -0.81119 | 4674 ft | 223 kts | 103° |
| 2026-04-26 18:24 | 51.22628 | -0.78751 | 4510 ft | 221 kts | 104° |
| 2026-04-26 18:24 | 51.22233 | -0.76380 | 4307 ft | 221 kts | 103° |
| 2026-04-26 18:25 | 51.21835 | -0.74000 | 4116 ft | 220 kts | 103° |
| 2026-04-26 18:25 | 51.21445 | -0.71667 | 3922 ft | 218 kts | 103° |
| 2026-04-26 18:25 | 51.21083 | -0.69297 | 3727 ft | 216 kts | 95° |
| 2026-04-26 18:25 | 51.21264 | -0.66987 | 3535 ft | 212 kts | 65° |
| 2026-04-26 18:26 | 51.22030 | -0.64975 | 3350 ft | 211 kts | 55° |
| 2026-04-26 18:26 | 51.22851 | -0.63045 | 3151 ft | 211 kts | 56° |
| 2026-04-26 18:26 | 51.23666 | -0.61108 | 2982 ft | 210 kts | 56° |
| 2026-04-26 18:26 | 51.24482 | -0.59168 | 2764 ft | 210 kts | 56° |
| 2026-04-26 18:27 | 51.25293 | -0.57230 | 2463 ft | 209 kts | 56° |
| 2026-04-26 18:27 | 51.26097 | -0.55301 | 2127 ft | 209 kts | 56° |
| 2026-04-26 18:27 | 51.26893 | -0.53409 | 2010 ft | 198 kts | 53° |
| 2026-04-26 18:27 | 51.27985 | -0.52209 | 1997 ft | 197 kts | 12° |
| 2026-04-26 18:28 | 51.29338 | -0.52605 | 2003 ft | 203 kts | 335° |
| 2026-04-26 18:28 | 51.30522 | -0.53881 | 2016 ft | 209 kts | 321° |
| 2026-04-26 18:28 | 51.31494 | -0.55631 | 2012 ft | 208 kts | 306° |
| 2026-04-26 18:28 | 51.32114 | -0.57618 | 2027 ft | 195 kts | 290° |
| 2026-04-26 18:29 | 51.32405 | -0.59718 | 2017 ft | 195 kts | 277° |
| 2026-04-26 18:29 | 51.32386 | -0.61895 | 2012 ft | 194 kts | 263° |
| 2026-04-26 18:29 | 51.32053 | -0.63947 | 2010 ft | 180 kts | 249° |
| 2026-04-26 18:29 | 51.31544 | -0.65714 | 1990 ft | 175 kts | 243° |
| 2026-04-26 18:30 | 51.30966 | -0.67457 | 1767 ft | 176 kts | 242° |
| 2026-04-26 18:30 | 51.30406 | -0.69116 | 1524 ft | 158 kts | 242° |
| 2026-04-26 18:30 | 51.29918 | -0.70579 | 1332 ft | 146 kts | 242° |
| 2026-04-26 18:30 | 51.29448 | -0.71998 | 1105 ft | 142 kts | 241° |
| 2026-04-26 18:31 | 51.28999 | -0.73383 | 868 ft | 136 kts | 242° |
| 2026-04-26 18:31 | 51.28583 | -0.74677 | 636 ft | 130 kts | 246° |
| 2026-04-26 18:31 | 51.28154 | -0.75919 | 434 ft | 128 kts | 240° |
| 2026-04-26 18:31 | 51.27748 | -0.77131 | 248 ft | 118 kts | 241° |
| 2026-04-26 18:32 | 51.27423 | -0.78107 | 241 ft | 67 kts | 242° |
| 2026-04-26 18:32 | 51.27277 | -0.78542 | 241 ft | 25 kts | 243° |
| 2026-04-26 18:32 | 51.27272 | -0.78692 | 241 ft | 7 kts | 310° |
| 2026-04-26 18:32 | 51.27291 | -0.78716 | 241 ft | 0 kts | 332° |
| 2026-04-26 18:33 | 51.27298 | -0.78721 | 241 ft | 4 kts | 344° |
| 2026-04-26 18:33 | 51.27338 | -0.78687 | 241 ft | 9 kts | 44° |
| 2026-04-26 18:33 | 51.27395 | -0.78604 | 241 ft | 13 kts | 41° |
| 2026-04-26 18:33 | 51.27473 | -0.78497 | 241 ft | 15 kts | 39° |
| 2026-04-26 18:34 | 51.27546 | -0.78396 | 241 ft | 14 kts | 41° |
| 2026-04-26 18:34 | 51.27629 | -0.78280 | 241 ft | 15 kts | 43° |
| 2026-04-26 18:34 | 51.27650 | -0.78238 | 241 ft | 0 kts | 60° |
| 2026-04-26 18:34 | 51.27650 | -0.78236 | 241 ft | 0 kts | 60° |
| 2026-04-26 18:35 | 51.27658 | -0.78215 | 241 ft | 6 kts | 55° |
| 2026-04-26 18:35 | 51.27671 | -0.78138 | 241 ft | 6 kts | 108° |
| 2026-04-26 18:35 | 51.27668 | -0.78093 | 241 ft | 3 kts | 18° |
| 2026-04-26 18:35 | 51.27676 | -0.78100 | 241 ft | 0 kts | 307° |